Terminal Aerodrome Forecast
Issued by NWS Charleston, WV

Current Version | Previous Version | Graphics & Text | Print | Product List | Glossary On
Versions: 1 2 3 4 5 6 7 8 9 10 11 12 13 14 15 16 17 18 19 20 21 22 23 24 25 26
589
FTUS41 KRLX 240258 AAB
TAFPKB
TAF AMD
KPKB 240258Z 2403/2424 05006KT P6SM -RA BKN015 OVC025
     FM240900 31007KT P6SM OVC012
     FM241500 29008KT P6SM OVC018=

USA.gov is the U.S. government's official web portal to all federal, state and local government web resources and services.